Time;durP1;ratioP1;P1;durP2;ratioP2;P2;SDS_P1;SDS_P2;PMS_P1;PMS_P2;Temp;Humidity;BMP_temperature;BMP_pressure;BME280_temperature;BME280_humidity;BME280_pressure;Samples;Min_cycle;Max_cycle;Signal;HPM_P1;HPM_P2
2022/11/15 00:00:45;;;;;;;24.38;13.40;;;3.90;99.90;;;;;;5093708;28;20032;-51
2022/11/15 00:03:14;;;;;;;19.20;12.40;;;3.80;99.90;;;;;;5093574;28;20028;-54
2022/11/15 00:05:40;;;;;;;20.63;12.40;;;3.90;99.90;;;;;;5094901;28;20024;-51
2022/11/15 00:08:06;;;;;;;21.35;14.35;;;3.80;99.90;;;;;;5095208;28;20065;-50
2022/11/15 00:10:31;;;;;;;24.48;14.07;;;3.80;99.90;;;;;;5094742;28;20024;-50
2022/11/15 00:12:57;;;;;;;21.73;13.35;;;3.70;99.90;;;;;;5094952;28;20035;-50
2022/11/15 00:15:22;;;;;;;23.02;14.38;;;3.70;99.90;;;;;;5094964;28;20031;-51
2022/11/15 00:17:49;;;;;;;18.83;13.77;;;3.70;99.90;;;;;;5094637;28;20510;-50
2022/11/15 00:20:15;;;;;;;21.60;12.40;;;3.60;99.90;;;;;;5094544;28;20490;-51
2022/11/15 00:22:40;;;;;;;25.05;13.77;;;3.60;99.90;;;;;;5093262;28;20032;-50
2022/11/15 00:25:06;;;;;;;19.90;13.93;;;3.60;99.90;;;;;;5094625;28;20028;-50
2022/11/15 00:27:32;;;;;;;20.15;14.20;;;3.60;99.90;;;;;;5094460;28;20024;-50
2022/11/15 00:29:57;;;;;;;21.35;13.65;;;3.60;99.90;;;;;;5094624;28;20028;-50
2022/11/15 00:32:23;;;;;;;24.30;13.45;;;3.60;99.90;;;;;;5094058;28;20020;-50
2022/11/15 00:34:48;;;;;;;24.90;14.20;;;3.60;99.90;;;;;;5094389;28;20171;-50
2022/11/15 00:37:14;;;;;;;26.48;14.52;;;3.70;99.90;;;;;;5094553;28;20020;-48
2022/11/15 00:39:40;;;;;;;19.85;13.68;;;3.70;99.90;;;;;;5094058;28;20061;-52
2022/11/15 00:42:05;;;;;;;18.30;13.93;;;3.70;99.90;;;;;;5094291;28;20082;-50
2022/11/15 00:44:31;;;;;;;16.95;12.85;;;3.80;99.90;;;;;;5094165;28;20063;-49
2022/11/15 00:46:57;;;;;;;17.23;12.57;;;3.70;99.90;;;;;;5094298;28;20063;-50
2022/11/15 00:49:22;;;;;;;21.15;13.90;;;3.70;99.90;;;;;;5094192;28;20099;-50
2022/11/15 00:51:48;;;;;;;20.73;12.80;;;3.70;99.90;;;;;;5092699;28;20034;-50
2022/11/15 00:54:13;;;;;;;17.90;12.63;;;3.70;99.90;;;;;;5093972;28;20058;-51
2022/11/15 00:56:39;;;;;;;18.45;13.40;;;3.70;99.90;;;;;;5093920;28;20039;-51
2022/11/15 00:59:05;;;;;;;22.02;14.93;;;3.70;99.90;;;;;;5094087;28;20028;-53
2022/11/15 01:01:30;;;;;;;18.48;12.43;;;3.70;99.90;;;;;;5093930;28;20031;-52
2022/11/15 01:03:57;;;;;;;19.08;11.77;;;3.70;99.90;;;;;;5093774;28;20032;-50
2022/11/15 01:06:22;;;;;;;18.55;11.52;;;3.70;99.90;;;;;;5094113;28;20371;-51
2022/11/15 01:08:48;;;;;;;16.50;11.88;;;3.70;99.90;;;;;;5093608;28;20028;-50
2022/11/15 01:11:13;;;;;;;19.50;12.77;;;3.60;99.90;;;;;;5093539;28;20032;-52
2022/11/15 01:13:40;;;;;;;18.73;12.10;;;3.60;99.90;;;;;;5092967;28;20024;-50
2022/11/15 01:16:23;;;;;;;18.65;12.50;;;3.60;99.90;;;;;;5093535;28;20371;-50
2022/11/15 01:18:50;;;;;;;18.05;11.48;;;3.60;99.90;;;;;;5093248;28;20052;-49
2022/11/15 01:21:19;;;;;;;20.63;11.98;;;3.50;99.90;;;;;;5093528;28;20024;-49
2022/11/15 01:23:44;;;;;;;17.65;11.95;;;3.50;99.90;;;;;;5093324;28;20111;-50
2022/11/15 01:26:13;;;;;;;19.98;11.90;;;3.50;99.90;;;;;;5092233;28;20111;-51
2022/11/15 01:28:40;;;;;;;13.30;10.52;;;3.50;99.90;;;;;;5093312;28;20068;-51
2022/11/15 01:31:11;;;;;;;21.40;13.98;;;3.40;99.90;;;;;;5093432;28;20073;-51
2022/11/15 01:33:37;;;;;;;21.98;12.30;;;3.40;99.90;;;;;;5093339;28;20065;-49
2022/11/15 01:36:08;;;;;;;20.00;11.00;;;3.40;99.90;;;;;;5093281;28;20366;-51
2022/11/15 01:38:34;;;;;;;14.55;10.70;;;3.40;99.90;;;;;;5093132;28;20486;-50
2022/11/15 01:41:00;;;;;;;20.80;11.65;;;3.40;99.90;;;;;;5093252;28;20391;-50
2022/11/15 01:43:32;;;;;;;17.20;11.07;;;3.40;99.90;;;;;;5091977;28;20036;-51
2022/11/15 01:46:12;;;;;;;17.88;11.82;;;3.50;99.90;;;;;;5093229;28;20024;-50
2022/11/15 01:48:38;;;;;;;15.57;11.70;;;3.40;99.90;;;;;;5092960;28;20028;-51
2022/11/15 01:51:08;;;;;;;16.02;12.55;;;3.40;99.90;;;;;;5093021;28;20486;-50
2022/11/15 01:53:36;;;;;;;21.95;12.00;;;3.40;99.90;;;;;;5092779;28;20024;-51
2022/11/15 01:56:07;;;;;;;19.60;11.95;;;3.50;99.90;;;;;;5092794;28;20114;-51
2022/11/15 01:58:35;;;;;;;17.63;11.65;;;3.50;99.90;;;;;;5092722;28;20035;-50
2022/11/15 02:01:01;;;;;;;21.33;14.00;;;3.50;99.90;;;;;;5092880;28;20020;-52
2022/11/15 02:03:56;;;;;;;23.80;11.10;;;3.50;99.90;;;;;;5092855;28;20521;-52
2022/11/15 02:06:22;;;;;;;14.60;10.63;;;3.50;99.90;;;;;;5086758;28;20036;-51
2022/11/15 02:08:49;;;;;;;20.63;10.75;;;3.40;99.90;;;;;;5092779;28;20028;-51
2022/11/15 02:11:15;;;;;;;15.55;10.70;;;3.40;99.90;;;;;;5092755;28;20027;-51
2022/11/15 02:13:42;;;;;;;15.18;10.05;;;3.40;99.90;;;;;;5092614;28;20441;-50
2022/11/15 02:16:29;;;;;;;23.73;11.25;;;3.30;99.90;;;;;;5092604;28;20463;-52
2022/11/15 02:19:26;;;;;;;17.67;10.20;;;3.30;99.90;;;;;;5091193;28;20502;-54
2022/11/15 02:22:14;;;;;;;17.63;10.98;;;3.30;99.90;;;;;;5092316;28;20596;-52
2022/11/15 02:25:18;;;;;;;19.02;10.68;;;3.30;99.90;;;;;;5092143;28;20032;-50
2022/11/15 02:28:20;;;;;;;14.13;10.10;;;3.30;99.90;;;;;;5092290;28;20020;-52
2022/11/15 02:30:52;;;;;;;16.60;10.50;;;3.30;99.90;;;;;;5092042;28;20028;-51
2022/11/15 02:33:32;;;;;;;16.48;10.48;;;3.20;99.90;;;;;;5092263;28;20032;-48
2022/11/15 02:36:00;;;;;;;23.15;13.35;;;3.20;99.90;;;;;;5092174;28;20024;-51
2022/11/15 02:38:28;;;;;;;16.95;10.45;;;3.20;99.90;;;;;;5092303;28;20023;-50
2022/11/15 02:41:31;;;;;;;13.02;10.10;;;3.30;99.90;;;;;;5092179;28;20387;-50
2022/11/15 02:44:15;;;;;;;15.95;10.52;;;3.30;99.90;;;;;;5089874;28;20123;-50
2022/11/15 02:47:14;;;;;;;11.45;9.20;;;3.30;99.90;;;;;;5091885;28;20664;-49
2022/11/15 02:49:53;;;;;;;13.55;9.45;;;3.40;99.90;;;;;;5090584;28;20123;-51
2022/11/15 02:52:25;;;;;;;12.52;9.50;;;3.40;99.90;;;;;;5092073;28;20026;-51
2022/11/15 02:54:56;;;;;;;16.25;9.65;;;3.40;99.90;;;;;;5091653;28;20021;-51
2022/11/15 02:58:01;;;;;;;13.95;10.35;;;3.40;99.90;;;;;;5092039;28;20107;-53
2022/11/15 03:00:30;;;;;;;13.80;9.98;;;3.50;99.90;;;;;;5091955;28;20031;-51
2022/11/15 03:03:13;;;;;;;17.45;10.95;;;3.50;99.90;;;;;;5091826;28;20048;-49
2022/11/15 03:06:08;;;;;;;;;;;3.50;99.90;;;;;;5092201;28;20070;-50
2022/11/15 03:08:47;;;;;;;17.42;10.43;;;3.50;99.90;;;;;;5098407;28;20065;-48
2022/11/15 03:11:21;;;;;;;16.15;11.65;;;3.50;99.90;;;;;;5091789;28;20078;-50
2022/11/15 03:13:56;;;;;;;22.58;11.07;;;3.60;99.90;;;;;;5091620;28;20027;-52
2022/11/15 03:16:50;;;;;;;15.02;9.80;;;3.50;99.90;;;;;;5091780;28;20027;-50
2022/11/15 03:19:48;;;;;;;15.25;9.90;;;3.50;99.90;;;;;;5091404;28;20550;-49
2022/11/15 03:22:23;;;;;;;18.90;11.30;;;3.50;99.90;;;;;;5091748;28;20012;-50
2022/11/15 03:24:53;;;;;;;15.73;9.93;;;3.40;99.90;;;;;;5091538;28;20402;-52
2022/11/15 03:27:24;;;;;;;14.32;10.18;;;3.40;99.90;;;;;;5091731;28;20023;-50
2022/11/15 03:30:00;;;;;;;19.60;10.85;;;3.30;99.90;;;;;;5091415;28;20030;-50
2022/11/15 03:32:30;;;;;;;15.73;11.82;;;3.30;99.90;;;;;;5091481;28;20091;-49
2022/11/15 03:35:04;;;;;;;27.13;17.90;;;3.20;99.90;;;;;;5091547;28;20517;-50
2022/11/15 03:37:59;;;;;;;22.77;14.13;;;3.10;99.90;;;;;;5091480;28;20020;-50
2022/11/15 03:40:36;;;;;;;25.17;14.85;;;3.00;99.90;;;;;;5091717;28;20028;-49
2022/11/15 03:43:25;;;;;;;19.00;12.85;;;3.00;99.90;;;;;;5091459;28;20027;-49
2022/11/15 03:45:57;;;;;;;17.65;11.98;;;3.00;99.90;;;;;;5091181;28;20021;-53
2022/11/15 03:48:30;;;;;;;18.40;12.20;;;2.90;99.90;;;;;;5091338;28;20038;-51
2022/11/15 03:50:56;;;;;;;15.82;11.40;;;2.90;99.90;;;;;;5091406;28;20024;-52
2022/11/15 03:53:22;;;;;;;20.60;11.82;;;2.90;99.90;;;;;;5091449;28;20031;-52
2022/11/15 03:55:47;;;;;;;17.08;11.38;;;2.90;99.90;;;;;;5091353;28;20067;-50
2022/11/15 03:58:13;;;;;;;16.15;10.85;;;2.80;99.90;;;;;;5091341;28;20029;-49
2022/11/15 04:00:39;;;;;;;14.68;10.23;;;2.80;99.90;;;;;;5091188;28;20043;-50
2022/11/15 04:03:04;;;;;;;16.85;10.75;;;2.80;99.90;;;;;;5089697;28;20491;-50
2022/11/15 04:05:30;;;;;;;15.55;10.57;;;2.70;99.90;;;;;;5091264;28;20059;-52
2022/11/15 04:07:56;;;;;;;17.33;10.63;;;2.70;99.90;;;;;;5092879;28;20027;-49
2022/11/15 04:10:21;;;;;;;18.85;10.63;;;2.70;99.90;;;;;;5095000;28;20079;-50
2022/11/15 04:12:47;;;;;;;13.38;10.55;;;2.70;99.90;;;;;;5094839;28;20028;-49
2022/11/15 04:15:22;;;;;;;17.08;10.88;;;2.70;99.90;;;;;;5094951;28;20085;-50
2022/11/15 04:17:50;;;;;;;18.30;11.50;;;2.60;99.90;;;;;;5094810;28;20031;-49
2022/11/15 04:26:00;;;;;;;16.08;10.43;;;2.50;99.90;;;;;;5094871;28;20035;-51
2022/11/15 04:28:25;;;;;;;15.40;11.68;;;2.50;99.90;;;;;;5094686;28;20038;-49
2022/11/15 04:30:52;;;;;;;16.20;10.57;;;2.50;99.90;;;;;;5094547;28;20024;-49
2022/11/15 04:33:18;;;;;;;17.63;10.73;;;2.50;99.90;;;;;;5094591;28;20471;-49
2022/11/15 04:37:11;;;;;;;17.27;10.70;;;2.40;99.90;;;;;;5094476;28;20028;-50
2022/11/15 04:38:29;;;;;;;17.02;10.27;;;2.40;99.90;;;;;;5094212;28;20073;-50
2022/11/15 04:40:55;;;;;;;15.05;9.35;;;2.30;99.90;;;;;;5094361;28;20028;-49
2022/11/15 04:43:20;;;;;;;18.50;12.40;;;2.30;99.90;;;;;;5094275;28;20503;-50
2022/11/15 04:45:46;;;;;;;18.17;12.98;;;2.30;99.90;;;;;;5094103;28;20028;-49
2022/11/15 04:48:11;;;;;;;18.20;12.05;;;2.40;99.90;;;;;;5094239;28;20016;-51
2022/11/15 04:50:37;;;;;;;15.82;10.40;;;2.40;99.90;;;;;;5094030;28;20027;-50
2022/11/15 04:53:03;;;;;;;14.68;11.38;;;2.40;99.90;;;;;;5094056;28;20024;-51
2022/11/15 04:55:28;;;;;;;14.50;11.10;;;2.30;99.90;;;;;;5094081;28;20555;-51
2022/11/15 04:57:59;;;;;;;14.18;10.65;;;2.40;99.90;;;;;;5094098;28;20028;-51
2022/11/15 05:00:25;;;;;;;15.63;10.93;;;2.40;99.90;;;;;;5094004;28;20065;-48
2022/11/15 05:05:35;;;;;;;25.40;10.73;;;2.40;99.90;;;;;;5093846;28;20071;-50
2022/11/15 05:08:01;;;;;;;15.95;10.95;;;2.40;99.90;;;;;;5093893;28;20028;-48
2022/11/15 05:10:27;;;;;;;16.73;11.18;;;2.40;99.90;;;;;;5093752;28;20032;-50
2022/11/15 05:12:52;;;;;;;12.98;10.07;;;2.40;99.90;;;;;;5093643;28;20020;-51
2022/11/15 05:15:18;;;;;;;15.23;10.80;;;2.40;99.90;;;;;;5093572;28;20475;-52
2022/11/15 05:17:44;;;;;;;16.40;11.43;;;2.40;99.90;;;;;;5093373;28;20032;-51
2022/11/15 05:20:10;;;;;;;14.80;10.73;;;2.40;99.90;;;;;;5093448;28;20044;-48
2022/11/15 05:22:36;;;;;;;15.45;11.00;;;2.50;99.90;;;;;;5093455;28;20107;-52
2022/11/15 05:25:02;;;;;;;18.35;11.75;;;2.50;99.90;;;;;;5093444;28;20111;-49
2022/11/15 05:27:27;;;;;;;11.98;9.73;;;2.50;99.90;;;;;;5093463;28;20681;-52
2022/11/15 05:29:53;;;;;;;17.65;10.88;;;2.50;99.90;;;;;;5093222;28;20025;-49
2022/11/15 05:32:18;;;;;;;14.95;10.40;;;2.50;99.90;;;;;;5091716;28;20069;-51
2022/11/15 05:34:45;;;;;;;14.25;10.55;;;2.50;99.90;;;;;;5093165;28;20058;-52
2022/11/15 05:37:10;;;;;;;13.63;9.85;;;2.50;99.90;;;;;;5092015;28;20036;-51
2022/11/15 05:39:36;;;;;;;17.67;10.95;;;2.50;99.90;;;;;;5092921;28;20039;-50
2022/11/15 05:42:09;;;;;;;12.40;9.93;;;2.50;99.90;;;;;;5093213;28;20046;-49
2022/11/15 05:44:37;;;;;;;19.42;10.88;;;2.50;99.90;;;;;;5092948;28;20628;-50
2022/11/15 05:47:05;;;;;;;15.27;10.00;;;2.40;99.90;;;;;;5092925;28;20028;-52
2022/11/15 05:49:36;;;;;;;14.15;10.70;;;2.40;99.90;;;;;;5092865;28;20024;-52
2022/11/15 05:52:05;;;;;;;14.75;10.98;;;2.40;99.90;;;;;;5092654;28;20036;-50
2022/11/15 05:54:31;;;;;;;14.80;10.10;;;2.40;99.90;;;;;;5092551;28;20379;-52
2022/11/15 05:56:57;;;;;;;21.90;10.95;;;2.40;99.90;;;;;;5092846;28;20038;-51
2022/11/15 05:59:24;;;;;;;18.58;10.95;;;2.30;99.90;;;;;;5092834;28;20024;-50
2022/11/15 06:01:49;;;;;;;17.90;11.85;;;2.30;99.90;;;;;;5091660;28;20136;-49
2022/11/15 06:04:15;;;;;;;21.08;12.65;;;2.30;99.90;;;;;;5091344;28;20475;-50
2022/11/15 06:06:40;;;;;;;20.45;13.70;;;2.30;99.90;;;;;;5091388;28;20372;-51
2022/11/15 06:09:06;;;;;;;20.48;13.90;;;2.20;99.90;;;;;;5091333;28;20476;-49
2022/11/15 06:11:32;;;;;;;22.05;14.60;;;2.20;99.90;;;;;;5091039;28;20099;-55
2022/11/15 06:13:57;;;;;;;27.60;16.77;;;2.30;99.90;;;;;;5091061;28;20479;-52
2022/11/15 06:16:23;;;;;;;28.45;17.58;;;2.30;99.90;;;;;;5091357;28;20492;-48
2022/11/15 06:18:48;;;;;;;31.15;19.50;;;2.20;99.90;;;;;;5090950;28;20090;-55
2022/11/15 06:21:14;;;;;;;36.42;20.20;;;2.10;99.90;;;;;;5091202;28;20157;-53
2022/11/15 06:23:40;;;;;;;45.15;22.35;;;2.10;99.90;;;;;;5089692;28;20339;-54
2022/11/15 06:26:06;;;;;;;38.97;21.00;;;2.10;99.90;;;;;;5090951;28;20190;-53
2022/11/15 06:28:33;;;;;;;44.25;19.88;;;2.10;99.90;;;;;;5090908;28;20016;-55
2022/11/15 06:31:11;;;;;;;32.88;20.25;;;2.20;99.90;;;;;;5090327;28;20441;-52
2022/11/15 06:33:38;;;;;;;32.92;16.98;;;2.20;99.90;;;;;;5090803;28;20062;-54
2022/11/15 06:36:06;;;;;;;40.92;17.63;;;2.20;99.90;;;;;;5091023;28;20035;-52
2022/11/15 06:38:32;;;;;;;78.70;20.38;;;2.20;99.90;;;;;;5090744;28;20245;-54
2022/11/15 06:41:02;;;;;;;72.50;20.25;;;2.30;99.90;;;;;;5090785;28;20024;-53
2022/11/15 06:43:28;;;;;;;39.55;16.75;;;2.30;99.90;;;;;;5090775;28;20111;-51
2022/11/15 06:45:54;;;;;;;34.88;19.00;;;2.40;99.90;;;;;;5090809;28;20107;-52
2022/11/15 06:48:19;;;;;;;37.25;20.10;;;2.40;99.90;;;;;;5090780;28;20058;-54
2022/11/15 06:50:54;;;;;;;37.00;18.67;;;2.40;99.90;;;;;;5089230;28;20475;-53
2022/11/15 06:53:20;;;;;;;40.10;19.42;;;2.40;99.90;;;;;;5090635;28;20437;-53
2022/11/15 06:55:46;;;;;;;34.22;20.50;;;2.30;99.90;;;;;;5090398;28;20028;-54
2022/11/15 06:58:11;;;;;;;32.00;20.42;;;2.30;99.90;;;;;;5090716;28;20028;-51
2022/11/15 07:00:37;;;;;;;46.05;21.00;;;2.40;99.90;;;;;;5090493;28;20059;-54
2022/11/15 07:03:03;;;;;;;30.83;20.70;;;2.40;99.90;;;;;;5090501;28;20024;-54
2022/11/15 07:05:29;;;;;;;45.53;22.15;;;2.50;99.90;;;;;;5090609;28;20032;-54
2022/11/15 07:07:56;;;;;;;37.35;19.50;;;2.60;99.90;;;;;;5089429;28;20016;-54
2022/11/15 07:10:24;;;;;;;43.78;22.10;;;2.70;99.90;;;;;;5090319;28;20046;-53
2022/11/15 07:12:50;;;;;;;35.20;21.42;;;2.80;99.90;;;;;;5090309;28;20506;-54
2022/11/15 07:15:16;;;;;;;29.30;19.15;;;2.80;99.90;;;;;;5090399;28;20028;-50
2022/11/15 07:17:42;;;;;;;18.92;12.30;;;2.90;99.90;;;;;;5090306;28;20115;-51
2022/11/15 07:20:08;;;;;;;13.02;9.82;;;3.00;99.90;;;;;;5090366;28;20115;-56
2022/11/15 07:22:33;;;;;;;16.75;11.70;;;3.00;99.90;;;;;;5090292;28;20087;-57
2022/11/15 07:24:59;;;;;;;24.40;12.98;;;3.00;99.90;;;;;;5090153;28;20031;-52
2022/11/15 07:27:25;;;;;;;19.63;13.18;;;3.00;99.90;;;;;;5090456;28;20071;-55
2022/11/15 07:29:50;;;;;;;27.58;16.45;;;2.80;99.90;;;;;;5090104;28;20016;-53
2022/11/15 07:32:16;;;;;;;32.38;20.15;;;2.70;99.90;;;;;;5090236;28;20020;-51
2022/11/15 07:34:42;;;;;;;33.38;19.45;;;2.80;99.90;;;;;;5090176;28;20032;-53
2022/11/15 07:37:07;;;;;;;17.98;13.50;;;2.80;99.90;;;;;;5090224;28;20024;-56
2022/11/15 07:39:33;;;;;;;148.50;15.30;;;2.90;99.90;;;;;;5089948;28;20031;-52
2022/11/15 07:44:43;;;;;;;22.25;10.80;;;3.20;99.90;;;;;;5094063;28;20498;-54
2022/11/15 07:47:09;;;;;;;22.70;10.90;;;3.30;99.90;;;;;;5094186;28;20048;-53
2022/11/15 07:49:35;;;;;;;37.20;11.65;;;3.30;99.90;;;;;;5093981;28;20472;-53
2022/11/15 07:52:00;;;;;;;21.80;11.40;;;3.20;99.90;;;;;;5094141;28;20035;-50
2022/11/15 07:54:26;;;;;;;24.75;10.98;;;3.20;99.90;;;;;;5093969;28;20035;-52
2022/11/15 07:56:51;;;;;;;28.23;12.30;;;3.40;99.90;;;;;;5093860;28;20028;-51
2022/11/15 07:59:17;;;;;;;28.90;11.32;;;3.40;99.90;;;;;;5093908;28;20028;-51
2022/11/15 08:01:43;;;;;;;27.63;10.90;;;3.50;99.90;;;;;;5093682;28;20085;-52
2022/11/15 08:04:10;;;;;;;20.75;11.60;;;3.70;99.90;;;;;;5092372;28;20028;-52
2022/11/15 08:06:36;;;;;;;25.77;10.32;;;3.90;99.90;;;;;;5093553;28;20051;-53
2022/11/15 08:09:02;;;;;;;19.02;11.45;;;4.00;99.90;;;;;;5093812;28;20016;-54
2022/11/15 08:11:28;;;;;;;20.13;9.77;;;4.20;99.90;;;;;;5093712;28;20032;-54
2022/11/15 08:13:53;;;;;;;14.40;9.32;;;4.40;99.90;;;;;;5093667;28;20691;-53
2022/11/15 08:16:19;;;;;;;31.75;12.00;;;4.50;99.90;;;;;;5093671;28;20054;-57
2022/11/15 08:18:45;;;;;;;25.95;11.63;;;4.70;99.90;;;;;;5093251;28;20044;-55
2022/11/15 08:21:14;;;;;;;22.67;11.88;;;4.80;99.90;;;;;;5093430;28;20027;-51
2022/11/15 08:23:40;;;;;;;43.95;12.80;;;5.20;99.90;;;;;;5093263;28;20138;-55
2022/11/15 08:26:05;;;;;;;27.77;12.23;;;5.40;99.90;;;;;;5093443;28;20115;-56
2022/11/15 08:28:32;;;;;;;22.08;11.98;;;5.60;99.90;;;;;;5093212;28;20028;-54
2022/11/15 08:30:58;;;;;;;100.72;13.23;;;5.80;99.90;;;;;;5093372;28;20450;-52
2022/11/15 08:33:24;;;;;;;77.38;13.75;;;5.80;99.90;;;;;;5093328;28;20107;-54
2022/11/15 08:35:50;;;;;;;57.75;13.40;;;5.70;99.90;;;;;;5093074;28;20024;-56
2022/11/15 08:38:15;;;;;;;47.13;24.30;;;5.70;99.90;;;;;;5093172;28;20487;-54
2022/11/15 08:40:41;;;;;;;32.38;24.27;;;5.80;99.90;;;;;;5092953;28;20073;-50
2022/11/15 08:43:07;;;;;;;33.35;24.60;;;5.90;99.90;;;;;;5093084;28;20149;-51
2022/11/15 08:45:34;;;;;;;35.63;26.40;;;6.00;99.90;;;;;;5092804;28;20386;-51
2022/11/15 08:48:01;;;;;;;35.00;25.63;;;6.30;99.90;;;;;;5093000;28;20051;-50
2022/11/15 08:50:27;;;;;;;34.42;25.52;;;6.50;99.90;;;;;;5093014;28;20028;-50
2022/11/15 08:52:52;;;;;;;35.97;25.08;;;6.70;99.90;;;;;;5092334;28;20024;-54
2022/11/15 08:55:18;;;;;;;32.50;24.10;;;6.80;99.90;;;;;;5092919;28;20020;-51
2022/11/15 08:57:44;;;;;;;29.92;21.92;;;7.00;99.90;;;;;;5092944;28;20024;-51
2022/11/15 09:00:11;;;;;;;34.22;22.55;;;7.20;99.90;;;;;;5092837;28;20024;-53
2022/11/15 09:02:38;;;;;;;33.45;22.45;;;7.30;99.90;;;;;;5092551;28;20028;-54
2022/11/15 09:05:06;;;;;;;44.00;20.33;;;7.40;99.90;;;;;;5092521;28;20021;-54
2022/11/15 09:07:31;;;;;;;28.23;19.38;;;7.40;99.90;;;;;;5092298;28;20073;-53
2022/11/15 09:09:57;;;;;;;24.25;18.40;;;7.50;99.90;;;;;;5091360;28;20426;-53
2022/11/15 09:12:24;;;;;;;24.15;18.02;;;7.60;99.90;;;;;;5092655;28;20027;-51
2022/11/15 09:14:50;;;;;;;32.47;18.88;;;7.80;99.90;;;;;;5091196;28;20118;-53
2022/11/15 09:17:15;;;;;;;31.55;20.70;;;8.00;99.90;;;;;;5092652;28;20024;-50
2022/11/15 09:19:41;;;;;;;29.30;18.27;;;8.00;99.90;;;;;;5092337;28;20052;-53
2022/11/15 09:22:08;;;;;;;26.13;18.58;;;8.10;99.90;;;;;;5092134;28;20032;-53
2022/11/15 09:24:34;;;;;;;33.58;23.02;;;8.30;99.90;;;;;;5092101;28;20024;-50
2022/11/15 09:27:00;;;;;;;36.65;19.52;;;8.30;99.90;;;;;;5091013;28;20103;-52
2022/11/15 09:29:26;;;;;;;43.97;28.95;;;8.30;99.90;;;;;;5092280;28;20107;-55
2022/11/15 09:31:52;;;;;;;32.08;22.20;;;8.30;99.90;;;;;;5091983;28;20219;-51
2022/11/15 09:34:19;;;;;;;26.98;17.67;;;8.80;99.90;;;;;;5091973;28;20024;-54
2022/11/15 09:36:44;;;;;;;24.77;17.30;;;9.20;99.90;;;;;;5090729;28;20390;-52
2022/11/15 09:39:10;;;;;;;22.15;17.48;;;9.50;99.90;;;;;;5092172;28;20028;-52
2022/11/15 09:41:51;;;;;;;28.30;17.60;;;9.40;99.90;;;;;;5092020;28;20056;-51
2022/11/15 09:44:16;;;;;;;32.80;18.73;;;9.30;99.90;;;;;;5092026;28;20509;-52
2022/11/15 09:46:42;;;;;;;46.47;19.48;;;9.00;99.90;;;;;;5090500;28;20024;-51
2022/11/15 09:49:10;;;;;;;39.47;20.25;;;8.70;99.90;;;;;;5091777;28;20078;-51
2022/11/15 09:51:46;;;;;;;49.05;19.70;;;8.50;99.90;;;;;;5091654;28;20021;-53
2022/11/15 09:54:11;;;;;;;46.38;20.27;;;8.20;99.90;;;;;;5091807;28;20514;-51
2022/11/15 09:56:41;;;;;;;31.55;18.17;;;8.20;99.90;;;;;;5091815;28;20032;-52
2022/11/15 09:59:19;;;;;;;40.90;21.13;;;8.30;99.90;;;;;;5091600;28;20039;-53
2022/11/15 10:02:12;;;;;;;59.85;21.58;;;8.50;99.90;;;;;;5091621;28;20051;-53
2022/11/15 10:04:39;;;;;;;37.50;19.60;;;8.50;99.90;;;;;;5090279;28;20024;-53
2022/11/15 10:07:34;;;;;;;42.30;18.95;;;8.60;99.90;;;;;;5090218;28;20024;-50
2022/11/15 10:10:22;;;;;;;45.97;18.45;;;8.40;99.90;;;;;;5085594;28;20316;-52
2022/11/15 10:12:50;;;;;;;29.77;16.77;;;8.40;99.90;;;;;;5085421;28;20051;-51
2022/11/15 10:15:22;;;;;;;31.10;17.10;;;8.40;99.90;;;;;;5091409;28;20378;-53
2022/11/15 10:18:15;;;;;;;96.80;19.25;;;8.30;99.90;;;;;;5090890;28;20040;-54
2022/11/15 10:20:54;;;;;;;27.75;18.65;;;8.20;99.90;;;;;;5091264;28;20032;-53
2022/11/15 10:23:21;;;;;;;26.42;18.30;;;8.20;99.90;;;;;;5089827;28;20111;-53
2022/11/15 10:25:50;;;;;;;31.67;18.42;;;8.50;99.90;;;;;;5089745;28;20139;-49
2022/11/15 10:28:28;;;;;;;27.48;18.05;;;8.60;99.90;;;;;;5091536;28;20027;-49
2022/11/15 10:30:56;;;;;;;27.88;19.23;;;8.70;99.90;;;;;;5091005;28;20086;-50
2022/11/15 10:33:39;;;;;;;32.13;17.88;;;8.70;99.90;;;;;;5090938;28;20539;-52
2022/11/15 10:36:13;;;;;;;27.70;17.55;;;8.50;99.90;;;;;;5084602;28;20041;-54
2022/11/15 10:38:48;;;;;;;42.20;19.35;;;8.50;99.90;;;;;;5071007;28;20021;-51
2022/11/15 10:41:35;;;;;;;25.38;18.50;;;8.40;99.90;;;;;;5071487;28;20020;-51
2022/11/15 10:44:06;;;;;;;32.67;19.63;;;8.30;99.90;;;;;;5070868;28;20120;-51
2022/11/15 10:46:33;;;;;;;39.10;20.80;;;8.30;99.90;;;;;;5070269;28;20031;-51
2022/11/15 10:49:18;;;;;;;45.08;21.58;;;8.40;99.90;;;;;;5070545;28;20021;-49
2022/11/15 10:51:54;;;;;;;38.03;21.08;;;8.20;99.90;;;;;;5070438;28;20020;-51
2022/11/15 10:54:35;;;;;;;44.08;20.77;;;8.00;99.90;;;;;;5070523;28;20017;-51
2022/11/15 10:57:15;;;;;;;48.22;20.83;;;8.10;99.90;;;;;;5069182;28;20031;-50
2022/11/15 10:59:49;;;;;;;44.83;21.42;;;8.10;99.90;;;;;;5070213;28;20032;-51
2022/11/15 11:02:35;;;;;;;45.50;22.77;;;8.10;99.90;;;;;;5070379;28;20025;-51
2022/11/15 11:05:03;;;;;;;32.15;21.42;;;8.10;99.90;;;;;;5070064;28;20328;-53
2022/11/15 11:07:32;;;;;;;28.65;20.30;;;8.10;99.90;;;;;;5070308;28;20017;-52
2022/11/15 11:10:16;;;;;;;36.15;22.95;;;8.20;99.90;;;;;;5070174;28;20021;-51
2022/11/15 11:12:42;;;;;;;27.75;18.25;;;8.30;99.90;;;;;;5070343;28;20028;-53
2022/11/15 11:15:14;;;;;;;23.08;17.33;;;8.70;99.90;;;;;;5070715;28;20020;-50
2022/11/15 11:17:55;;;;;;;25.33;17.27;;;8.90;99.90;;;;;;5076805;28;20123;-49
2022/11/15 11:20:46;;;;;;;23.00;16.73;;;8.80;99.90;;;;;;5076829;28;20271;-52
2022/11/15 11:23:50;;;;;;;22.45;15.90;;;8.80;99.90;;;;;;5076523;28;20024;-49
2022/11/15 11:26:38;;;;;;;21.60;16.20;;;8.90;99.90;;;;;;5096937;28;20027;-49
2022/11/15 11:29:41;;;;;;;27.20;16.67;;;8.80;99.90;;;;;;5097062;28;20016;-49
2022/11/15 11:32:12;;;;;;;22.02;16.58;;;9.10;99.90;;;;;;5097394;28;20032;-51
2022/11/15 11:34:40;;;;;;;27.48;15.75;;;9.60;99.90;;;;;;5096747;28;20505;-49
2022/11/15 11:37:38;;;;;;;21.42;15.65;;;9.80;99.90;;;;;;5097047;28;20108;-50
2022/11/15 11:40:22;;;;;;;21.83;14.15;;;9.90;99.90;;;;;;5096990;28;20020;-52
2022/11/15 11:43:15;;;;;;;21.27;14.60;;;9.80;99.90;;;;;;5096693;28;20321;-50
2022/11/15 11:45:50;;;;;;;29.98;17.30;;;9.80;99.90;;;;;;5096861;28;20027;-50
2022/11/15 11:48:44;;;;;;;21.42;14.18;;;9.60;99.90;;;;;;5096772;28;20028;-50
2022/11/15 11:51:33;;;;;;;18.70;14.13;;;9.60;99.90;;;;;;5096890;28;20031;-53
2022/11/15 11:54:20;;;;;;;20.48;13.15;;;9.60;99.90;;;;;;5097096;28;20035;-52
2022/11/15 11:56:46;;;;;;;17.88;14.20;;;9.40;99.90;;;;;;5096784;28;20367;-52
2022/11/15 11:59:23;;;;;;;19.60;13.65;;;9.60;99.90;;;;;;5096868;28;20024;-50
2022/11/15 12:01:48;;;;;;;22.58;15.32;;;9.60;99.90;;;;;;5096662;28;20031;-53
2022/11/15 12:04:42;;;;;;;16.80;14.15;;;10.00;99.90;;;;;;5096852;28;20032;-50
2022/11/15 12:07:15;;;;;;;22.60;14.77;;;10.00;99.90;;;;;;5095281;28;20043;-51
2022/11/15 12:10:01;;;;;;;20.08;14.60;;;10.00;99.90;;;;;;5096499;28;20061;-49
2022/11/15 12:12:37;;;;;;;18.00;13.45;;;9.90;99.90;;;;;;5096626;28;20024;-49
2022/11/15 12:15:08;;;;;;;19.73;14.60;;;9.70;99.90;;;;;;5096635;28;20020;-51
2022/11/15 12:17:34;;;;;;;18.65;13.52;;;9.70;99.90;;;;;;5096589;28;20031;-53
2022/11/15 12:20:07;;;;;;;26.88;15.68;;;9.70;99.90;;;;;;5096603;28;20048;-51
2022/11/15 12:22:49;;;;;;;22.75;15.68;;;9.30;99.90;;;;;;5096658;28;20301;-49
2022/11/15 12:25:25;;;;;;;20.40;15.50;;;9.50;99.90;;;;;;5096415;28;20031;-51
2022/11/15 12:28:00;;;;;;;23.92;14.45;;;9.40;99.90;;;;;;5093788;28;20023;-50
2022/11/15 12:30:49;;;;;;;20.95;15.43;;;9.30;99.90;;;;;;5092080;28;20564;-49
2022/11/15 12:33:40;;;;;;;19.70;16.08;;;9.40;99.90;;;;;;5093254;28;20419;-50
2022/11/15 12:36:12;;;;;;;20.23;16.08;;;9.10;99.90;;;;;;5093389;28;20012;-50
2022/11/15 12:38:50;;;;;;;26.17;15.60;;;9.00;99.90;;;;;;5093130;28;20024;-50
2022/11/15 12:41:17;;;;;;;26.70;16.67;;;8.90;99.90;;;;;;5093225;28;20035;-50
2022/11/15 12:43:45;;;;;;;23.80;17.88;;;8.60;99.90;;;;;;5092586;28;20031;-51
2022/11/15 12:46:42;;;;;;;25.33;16.83;;;8.70;99.90;;;;;;5092562;28;20024;-50
2022/11/15 12:49:23;;;;;;;27.27;17.70;;;8.50;99.90;;;;;;5091573;28;20058;-50
2022/11/15 12:51:49;;;;;;;26.25;19.23;;;8.30;99.90;;;;;;5092918;28;20036;-51
2022/11/15 12:54:23;;;;;;;26.27;18.73;;;8.20;99.90;;;;;;5093023;28;20035;-51
2022/11/15 12:57:07;;;;;;;25.52;19.88;;;8.20;99.90;;;;;;5092798;28;20028;-51
2022/11/15 12:59:57;;;;;;;28.17;19.52;;;8.20;99.90;;;;;;5092656;28;20106;-51
2022/11/15 13:02:43;;;;;;;32.50;20.67;;;8.30;99.90;;;;;;5092832;28;20028;-49
2022/11/15 13:05:22;;;;;;;28.50;20.45;;;8.10;99.90;;;;;;5092542;28;20031;-50
2022/11/15 13:07:47;;;;;;;25.13;18.25;;;8.10;99.90;;;;;;5092491;28;20032;-53
2022/11/15 13:10:13;;;;;;;28.63;19.77;;;8.00;99.90;;;;;;5092783;28;20095;-49